sensor_id;sensor_type;location;lat;lon;timestamp;P1;durP1;ratioP1;P2;durP2;ratioP2
36585;SDS011;22591;48.314;11.562;2022-08-19T00:01:07;10.60;;;9.80;;
36585;SDS011;22591;48.314;11.562;2022-08-19T00:03:33;9.63;;;8.88;;
36585;SDS011;22591;48.314;11.562;2022-08-19T00:05:59;10.52;;;9.30;;
36585;SDS011;22591;48.314;11.562;2022-08-19T00:08:25;10.50;;;9.55;;
36585;SDS011;22591;48.314;11.562;2022-08-19T00:10:50;9.32;;;8.55;;
36585;SDS011;22591;48.314;11.562;2022-08-19T00:13:16;10.35;;;9.45;;
36585;SDS011;22591;48.314;11.562;2022-08-19T00:15:41;9.93;;;9.05;;
36585;SDS011;22591;48.314;11.562;2022-08-19T00:18:09;10.98;;;10.05;;
36585;SDS011;22591;48.314;11.562;2022-08-19T00:20:35;10.70;;;9.80;;
36585;SDS011;22591;48.314;11.562;2022-08-19T00:23:03;11.02;;;10.13;;
36585;SDS011;22591;48.314;11.562;2022-08-19T00:25:28;11.82;;;10.73;;
36585;SDS011;22591;48.314;11.562;2022-08-19T00:27:54;10.57;;;9.77;;
36585;SDS011;22591;48.314;11.562;2022-08-19T00:30:20;10.43;;;9.43;;
36585;SDS011;22591;48.314;11.562;2022-08-19T00:32:46;9.70;;;8.90;;
36585;SDS011;22591;48.314;11.562;2022-08-19T00:35:11;10.40;;;9.50;;
36585;SDS011;22591;48.314;11.562;2022-08-19T00:37:37;10.40;;;9.57;;
36585;SDS011;22591;48.314;11.562;2022-08-19T00:40:04;10.65;;;9.82;;
36585;SDS011;22591;48.314;11.562;2022-08-19T00:42:30;10.32;;;9.32;;
36585;SDS011;22591;48.314;11.562;2022-08-19T00:44:56;11.38;;;10.23;;
36585;SDS011;22591;48.314;11.562;2022-08-19T00:47:22;10.55;;;9.65;;
36585;SDS011;22591;48.314;11.562;2022-08-19T00:49:48;10.27;;;9.48;;
36585;SDS011;22591;48.314;11.562;2022-08-19T00:52:24;10.30;;;9.50;;
36585;SDS011;22591;48.314;11.562;2022-08-19T00:54:59;11.10;;;9.93;;
36585;SDS011;22591;48.314;11.562;2022-08-19T00:57:28;10.50;;;9.70;;
36585;SDS011;22591;48.314;11.562;2022-08-19T01:00:10;9.90;;;9.15;;
36585;SDS011;22591;48.314;11.562;2022-08-19T01:02:40;11.15;;;10.25;;
36585;SDS011;22591;48.314;11.562;2022-08-19T01:05:08;9.30;;;8.65;;
36585;SDS011;22591;48.314;11.562;2022-08-19T01:07:37;9.55;;;8.85;;
36585;SDS011;22591;48.314;11.562;2022-08-19T01:10:05;9.02;;;8.32;;
36585;SDS011;22591;48.314;11.562;2022-08-19T01:12:37;9.43;;;8.73;;
36585;SDS011;22591;48.314;11.562;2022-08-19T01:15:05;10.35;;;9.60;;
36585;SDS011;22591;48.314;11.562;2022-08-19T01:17:33;9.50;;;8.80;;
36585;SDS011;22591;48.314;11.562;2022-08-19T01:20:01;10.00;;;9.30;;
36585;SDS011;22591;48.314;11.562;2022-08-19T01:22:31;10.75;;;9.68;;
36585;SDS011;22591;48.314;11.562;2022-08-19T01:25:03;9.52;;;8.90;;
36585;SDS011;22591;48.314;11.562;2022-08-19T01:27:50;9.98;;;9.15;;
36585;SDS011;22591;48.314;11.562;2022-08-19T01:30:24;9.98;;;9.18;;
36585;SDS011;22591;48.314;11.562;2022-08-19T01:32:52;10.43;;;9.48;;
36585;SDS011;22591;48.314;11.562;2022-08-19T01:35:19;9.80;;;8.95;;
36585;SDS011;22591;48.314;11.562;2022-08-19T01:38:18;10.05;;;9.35;;
36585;SDS011;22591;48.314;11.562;2022-08-19T01:40:36;9.20;;;8.43;;
36585;SDS011;22591;48.314;11.562;2022-08-19T01:43:04;9.93;;;9.23;;
36585;SDS011;22591;48.314;11.562;2022-08-19T01:45:32;10.18;;;9.38;;
36585;SDS011;22591;48.314;11.562;2022-08-19T01:47:59;8.52;;;7.93;;
36585;SDS011;22591;48.314;11.562;2022-08-19T01:50:25;8.10;;;7.60;;
36585;SDS011;22591;48.314;11.562;2022-08-19T01:52:51;8.35;;;7.75;;
36585;SDS011;22591;48.314;11.562;2022-08-19T01:55:18;8.70;;;8.05;;
36585;SDS011;22591;48.314;11.562;2022-08-19T01:57:48;8.77;;;8.13;;
36585;SDS011;22591;48.314;11.562;2022-08-19T02:00:18;8.20;;;7.70;;
36585;SDS011;22591;48.314;11.562;2022-08-19T02:02:47;8.18;;;7.35;;
36585;SDS011;22591;48.314;11.562;2022-08-19T02:05:12;8.25;;;7.53;;
36585;SDS011;22591;48.314;11.562;2022-08-19T02:07:39;7.75;;;7.25;;
36585;SDS011;22591;48.314;11.562;2022-08-19T02:10:10;8.48;;;7.47;;
36585;SDS011;22591;48.314;11.562;2022-08-19T02:12:38;8.13;;;7.63;;
36585;SDS011;22591;48.314;11.562;2022-08-19T02:15:04;8.50;;;7.90;;
36585;SDS011;22591;48.314;11.562;2022-08-19T02:17:32;8.38;;;7.68;;
36585;SDS011;22591;48.314;11.562;2022-08-19T02:19:58;8.30;;;7.60;;
36585;SDS011;22591;48.314;11.562;2022-08-19T02:22:25;8.25;;;7.75;;
36585;SDS011;22591;48.314;11.562;2022-08-19T02:24:51;7.55;;;7.05;;
36585;SDS011;22591;48.314;11.562;2022-08-19T02:27:20;9.15;;;8.50;;
36585;SDS011;22591;48.314;11.562;2022-08-19T02:29:47;8.98;;;8.23;;
36585;SDS011;22591;48.314;11.562;2022-08-19T02:32:14;10.18;;;9.43;;
36585;SDS011;22591;48.314;11.562;2022-08-19T02:34:40;10.50;;;9.68;;
36585;SDS011;22591;48.314;11.562;2022-08-19T02:37:06;10.90;;;10.00;;
36585;SDS011;22591;48.314;11.562;2022-08-19T02:39:52;12.95;;;11.75;;
36585;SDS011;22591;48.314;11.562;2022-08-19T02:42:17;13.10;;;11.90;;
36585;SDS011;22591;48.314;11.562;2022-08-19T02:44:43;12.75;;;11.57;;
36585;SDS011;22591;48.314;11.562;2022-08-19T02:47:09;13.90;;;12.70;;
36585;SDS011;22591;48.314;11.562;2022-08-19T02:49:35;14.82;;;13.43;;
36585;SDS011;22591;48.314;11.562;2022-08-19T02:52:02;15.48;;;14.07;;
36585;SDS011;22591;48.314;11.562;2022-08-19T02:54:28;15.60;;;14.05;;
36585;SDS011;22591;48.314;11.562;2022-08-19T02:56:53;16.30;;;14.90;;
36585;SDS011;22591;48.314;11.562;2022-08-19T02:59:19;16.90;;;15.40;;
36585;SDS011;22591;48.314;11.562;2022-08-19T03:01:45;18.48;;;16.63;;
36585;SDS011;22591;48.314;11.562;2022-08-19T03:04:13;16.60;;;15.02;;
36585;SDS011;22591;48.314;11.562;2022-08-19T03:06:41;16.13;;;14.65;;
36585;SDS011;22591;48.314;11.562;2022-08-19T03:09:09;16.05;;;14.52;;
36585;SDS011;22591;48.314;11.562;2022-08-19T03:11:35;16.65;;;15.15;;
36585;SDS011;22591;48.314;11.562;2022-08-19T03:14:02;14.93;;;13.68;;
36585;SDS011;22591;48.314;11.562;2022-08-19T03:16:30;15.55;;;14.20;;
36585;SDS011;22591;48.314;11.562;2022-08-19T03:18:57;16.92;;;15.27;;
36585;SDS011;22591;48.314;11.562;2022-08-19T03:21:26;16.17;;;14.75;;
36585;SDS011;22591;48.314;11.562;2022-08-19T03:23:53;15.00;;;13.77;;
36585;SDS011;22591;48.314;11.562;2022-08-19T03:26:20;15.88;;;14.55;;
36585;SDS011;22591;48.314;11.562;2022-08-19T03:28:45;15.27;;;13.98;;
36585;SDS011;22591;48.314;11.562;2022-08-19T03:31:15;16.10;;;14.52;;
36585;SDS011;22591;48.314;11.562;2022-08-19T03:33:43;15.55;;;14.10;;
36585;SDS011;22591;48.314;11.562;2022-08-19T03:36:12;15.13;;;13.82;;
36585;SDS011;22591;48.314;11.562;2022-08-19T03:38:40;15.05;;;13.75;;
36585;SDS011;22591;48.314;11.562;2022-08-19T03:41:13;15.20;;;13.85;;
36585;SDS011;22591;48.314;11.562;2022-08-19T03:43:44;16.58;;;13.55;;
36585;SDS011;22591;48.314;11.562;2022-08-19T03:46:18;16.27;;;14.67;;
36585;SDS011;22591;48.314;11.562;2022-08-19T03:48:46;15.15;;;13.73;;
36585;SDS011;22591;48.314;11.562;2022-08-19T03:51:32;16.05;;;14.55;;
36585;SDS011;22591;48.314;11.562;2022-08-19T03:54:00;16.20;;;14.70;;
36585;SDS011;22591;48.314;11.562;2022-08-19T03:56:27;16.42;;;14.88;;
36585;SDS011;22591;48.314;11.562;2022-08-19T03:58:55;16.92;;;15.50;;
36585;SDS011;22591;48.314;11.562;2022-08-19T04:01:22;17.00;;;15.40;;
36585;SDS011;22591;48.314;11.562;2022-08-19T04:03:51;17.30;;;15.60;;
36585;SDS011;22591;48.314;11.562;2022-08-19T04:06:22;16.23;;;14.85;;
36585;SDS011;22591;48.314;11.562;2022-08-19T04:08:51;16.83;;;15.32;;
36585;SDS011;22591;48.314;11.562;2022-08-19T04:11:21;17.42;;;15.82;;
36585;SDS011;22591;48.314;11.562;2022-08-19T04:13:51;17.98;;;16.38;;
36585;SDS011;22591;48.314;11.562;2022-08-19T04:16:18;18.40;;;16.60;;
36585;SDS011;22591;48.314;11.562;2022-08-19T04:18:45;18.25;;;16.65;;
36585;SDS011;22591;48.314;11.562;2022-08-19T04:21:15;16.20;;;14.82;;
36585;SDS011;22591;48.314;11.562;2022-08-19T04:23:43;18.27;;;16.67;;
36585;SDS011;22591;48.314;11.562;2022-08-19T04:26:19;18.25;;;16.50;;
36585;SDS011;22591;48.314;11.562;2022-08-19T04:28:47;16.63;;;15.23;;
36585;SDS011;22591;48.314;11.562;2022-08-19T04:31:17;17.10;;;15.38;;
36585;SDS011;22591;48.314;11.562;2022-08-19T04:33:46;18.33;;;16.52;;
36585;SDS011;22591;48.314;11.562;2022-08-19T04:36:21;17.33;;;15.77;;
36585;SDS011;22591;48.314;11.562;2022-08-19T04:38:50;18.08;;;16.40;;
36585;SDS011;22591;48.314;11.562;2022-08-19T04:41:18;18.02;;;16.42;;
36585;SDS011;22591;48.314;11.562;2022-08-19T04:44:02;18.17;;;16.58;;
36585;SDS011;22591;48.314;11.562;2022-08-19T04:46:28;17.77;;;16.10;;
36585;SDS011;22591;48.314;11.562;2022-08-19T04:48:58;18.20;;;16.35;;
36585;SDS011;22591;48.314;11.562;2022-08-19T04:51:24;17.65;;;15.85;;
36585;SDS011;22591;48.314;11.562;2022-08-19T04:53:50;14.95;;;13.68;;
36585;SDS011;22591;48.314;11.562;2022-08-19T04:56:17;18.10;;;16.17;;
36585;SDS011;22591;48.314;11.562;2022-08-19T04:58:45;17.63;;;16.00;;
36585;SDS011;22591;48.314;11.562;2022-08-19T05:01:18;17.25;;;15.75;;
36585;SDS011;22591;48.314;11.562;2022-08-19T05:03:46;19.98;;;18.27;;
36585;SDS011;22591;48.314;11.562;2022-08-19T05:06:13;18.27;;;16.67;;
36585;SDS011;22591;48.314;11.562;2022-08-19T05:08:40;18.77;;;16.98;;
36585;SDS011;22591;48.314;11.562;2022-08-19T05:13:41;18.42;;;16.75;;
36585;SDS011;22591;48.314;11.562;2022-08-19T05:16:09;20.60;;;16.33;;
36585;SDS011;22591;48.314;11.562;2022-08-19T05:18:36;18.20;;;16.40;;
36585;SDS011;22591;48.314;11.562;2022-08-19T05:21:21;17.85;;;16.23;;
36585;SDS011;22591;48.314;11.562;2022-08-19T05:24:05;18.95;;;17.08;;
36585;SDS011;22591;48.314;11.562;2022-08-19T05:26:34;19.63;;;17.58;;
36585;SDS011;22591;48.314;11.562;2022-08-19T05:29:03;17.98;;;16.38;;
36585;SDS011;22591;48.314;11.562;2022-08-19T05:31:30;18.65;;;16.85;;
36585;SDS011;22591;48.314;11.562;2022-08-19T05:33:56;18.00;;;16.33;;
36585;SDS011;22591;48.314;11.562;2022-08-19T05:36:25;19.92;;;18.02;;
36585;SDS011;22591;48.314;11.562;2022-08-19T05:38:51;19.73;;;17.67;;
36585;SDS011;22591;48.314;11.562;2022-08-19T05:41:18;20.35;;;18.35;;
36585;SDS011;22591;48.314;11.562;2022-08-19T05:43:45;20.23;;;18.33;;
36585;SDS011;22591;48.314;11.562;2022-08-19T05:46:16;21.52;;;19.40;;
36585;SDS011;22591;48.314;11.562;2022-08-19T05:48:43;22.30;;;20.00;;
36585;SDS011;22591;48.314;11.562;2022-08-19T05:51:09;21.77;;;19.65;;
36585;SDS011;22591;48.314;11.562;2022-08-19T05:53:36;21.40;;;19.40;;
36585;SDS011;22591;48.314;11.562;2022-08-19T05:56:05;21.20;;;19.10;;
36585;SDS011;22591;48.314;11.562;2022-08-19T05:58:32;21.42;;;19.42;;
36585;SDS011;22591;48.314;11.562;2022-08-19T06:00:59;22.08;;;19.77;;
36585;SDS011;22591;48.314;11.562;2022-08-19T06:03:29;20.08;;;18.10;;
36585;SDS011;22591;48.314;11.562;2022-08-19T06:05:55;22.98;;;20.67;;
36585;SDS011;22591;48.314;11.562;2022-08-19T06:08:23;24.10;;;21.60;;
36585;SDS011;22591;48.314;11.562;2022-08-19T06:10:49;24.40;;;21.90;;
36585;SDS011;22591;48.314;11.562;2022-08-19T06:13:14;24.02;;;21.63;;
36585;SDS011;22591;48.314;11.562;2022-08-19T06:15:40;25.40;;;22.70;;
36585;SDS011;22591;48.314;11.562;2022-08-19T06:18:08;24.80;;;22.27;;
36585;SDS011;22591;48.314;11.562;2022-08-19T06:20:34;25.17;;;22.67;;
36585;SDS011;22591;48.314;11.562;2022-08-19T06:22:59;25.25;;;22.60;;
36585;SDS011;22591;48.314;11.562;2022-08-19T06:25:25;25.95;;;20.85;;
36585;SDS011;22591;48.314;11.562;2022-08-19T06:27:50;26.60;;;23.88;;
36585;SDS011;22591;48.314;11.562;2022-08-19T06:30:16;26.65;;;23.85;;
36585;SDS011;22591;48.314;11.562;2022-08-19T06:32:42;25.90;;;23.33;;
36585;SDS011;22591;48.314;11.562;2022-08-19T06:35:07;21.92;;;19.75;;
36585;SDS011;22591;48.314;11.562;2022-08-19T06:37:33;23.92;;;21.23;;
36585;SDS011;22591;48.314;11.562;2022-08-19T06:39:59;22.58;;;20.27;;
36585;SDS011;22591;48.314;11.562;2022-08-19T06:42:24;22.33;;;20.10;;
36585;SDS011;22591;48.314;11.562;2022-08-19T06:44:50;22.90;;;20.65;;
36585;SDS011;22591;48.314;11.562;2022-08-19T06:47:17;22.65;;;20.05;;
36585;SDS011;22591;48.314;11.562;2022-08-19T06:49:44;21.92;;;19.70;;
36585;SDS011;22591;48.314;11.562;2022-08-19T06:52:10;23.73;;;21.23;;
36585;SDS011;22591;48.314;11.562;2022-08-19T06:54:39;24.13;;;21.58;;
36585;SDS011;22591;48.314;11.562;2022-08-19T06:57:07;19.27;;;17.48;;
36585;SDS011;22591;48.314;11.562;2022-08-19T06:59:34;22.70;;;20.58;;
36585;SDS011;22591;48.314;11.562;2022-08-19T07:02:01;28.05;;;22.73;;
36585;SDS011;22591;48.314;11.562;2022-08-19T07:04:32;25.60;;;22.80;;
36585;SDS011;22591;48.314;11.562;2022-08-19T07:07:03;30.65;;;24.67;;
36585;SDS011;22591;48.314;11.562;2022-08-19T07:09:35;37.95;;;25.80;;
36585;SDS011;22591;48.314;11.562;2022-08-19T07:12:02;23.63;;;21.05;;
36585;SDS011;22591;48.314;11.562;2022-08-19T07:14:30;41.42;;;28.33;;
36585;SDS011;22591;48.314;11.562;2022-08-19T07:16:56;31.77;;;24.90;;
36585;SDS011;22591;48.314;11.562;2022-08-19T07:19:23;36.33;;;27.05;;
36585;SDS011;22591;48.314;11.562;2022-08-19T07:21:52;31.40;;;25.67;;
36585;SDS011;22591;48.314;11.562;2022-08-19T07:24:19;38.13;;;27.98;;
36585;SDS011;22591;48.314;11.562;2022-08-19T07:26:48;34.47;;;28.50;;
36585;SDS011;22591;48.314;11.562;2022-08-19T07:29:15;39.67;;;30.77;;
36585;SDS011;22591;48.314;11.562;2022-08-19T07:31:41;38.42;;;30.20;;
36585;SDS011;22591;48.314;11.562;2022-08-19T07:34:08;50.55;;;37.63;;
36585;SDS011;22591;48.314;11.562;2022-08-19T07:36:37;53.38;;;37.80;;
36585;SDS011;22591;48.314;11.562;2022-08-19T07:39:07;53.80;;;38.03;;
36585;SDS011;22591;48.314;11.562;2022-08-19T07:41:34;53.15;;;40.65;;
36585;SDS011;22591;48.314;11.562;2022-08-19T07:44:02;45.13;;;37.42;;
36585;SDS011;22591;48.314;11.562;2022-08-19T07:46:31;44.25;;;35.90;;
36585;SDS011;22591;48.314;11.562;2022-08-19T07:48:58;42.88;;;33.38;;
36585;SDS011;22591;48.314;11.562;2022-08-19T07:51:26;46.05;;;35.50;;
36585;SDS011;22591;48.314;11.562;2022-08-19T07:53:52;45.67;;;34.17;;
36585;SDS011;22591;48.314;11.562;2022-08-19T07:56:19;46.20;;;36.88;;
36585;SDS011;22591;48.314;11.562;2022-08-19T07:58:46;46.83;;;36.25;;
36585;SDS011;22591;48.314;11.562;2022-08-19T08:01:14;43.10;;;34.72;;
36585;SDS011;22591;48.314;11.562;2022-08-19T08:03:42;37.67;;;29.25;;
36585;SDS011;22591;48.314;11.562;2022-08-19T08:06:40;49.97;;;34.40;;
36585;SDS011;22591;48.314;11.562;2022-08-19T08:09:27;41.78;;;33.30;;
36585;SDS011;22591;48.314;11.562;2022-08-19T08:11:57;30.75;;;26.63;;
36585;SDS011;22591;48.314;11.562;2022-08-19T08:14:42;35.95;;;30.08;;
36585;SDS011;22591;48.314;11.562;2022-08-19T08:17:12;37.95;;;32.03;;
36585;SDS011;22591;48.314;11.562;2022-08-19T08:19:39;29.38;;;25.23;;
36585;SDS011;22591;48.314;11.562;2022-08-19T08:22:08;35.10;;;28.02;;
36585;SDS011;22591;48.314;11.562;2022-08-19T08:24:55;28.20;;;25.20;;
36585;SDS011;22591;48.314;11.562;2022-08-19T08:27:23;26.40;;;23.70;;
36585;SDS011;22591;48.314;11.562;2022-08-19T08:29:49;29.02;;;25.80;;
36585;SDS011;22591;48.314;11.562;2022-08-19T08:32:14;29.27;;;25.38;;
36585;SDS011;22591;48.314;11.562;2022-08-19T08:34:40;26.02;;;23.25;;
36585;SDS011;22591;48.314;11.562;2022-08-19T08:37:06;26.33;;;23.38;;
36585;SDS011;22591;48.314;11.562;2022-08-19T08:39:32;27.98;;;25.08;;
36585;SDS011;22591;48.314;11.562;2022-08-19T08:42:01;29.35;;;25.05;;
36585;SDS011;22591;48.314;11.562;2022-08-19T08:44:46;26.90;;;23.98;;
36585;SDS011;22591;48.314;11.562;2022-08-19T08:47:25;28.08;;;25.08;;
36585;SDS011;22591;48.314;11.562;2022-08-19T08:52:31;27.25;;;23.52;;
36585;SDS011;22591;48.314;11.562;2022-08-19T08:55:05;29.85;;;25.75;;
36585;SDS011;22591;48.314;11.562;2022-08-19T08:57:36;29.08;;;25.67;;
36585;SDS011;22591;48.314;11.562;2022-08-19T09:00:21;30.15;;;25.33;;
36585;SDS011;22591;48.314;11.562;2022-08-19T09:02:47;21.95;;;19.75;;
36585;SDS011;22591;48.314;11.562;2022-08-19T09:05:12;22.15;;;19.98;;
36585;SDS011;22591;48.314;11.562;2022-08-19T09:16:00;21.20;;;19.10;;
36585;SDS011;22591;48.314;11.562;2022-08-19T09:18:41;22.40;;;20.15;;
36585;SDS011;22591;48.314;11.562;2022-08-19T09:21:17;22.63;;;20.33;;
36585;SDS011;22591;48.314;11.562;2022-08-19T09:23:43;21.98;;;19.83;;
36585;SDS011;22591;48.314;11.562;2022-08-19T09:26:10;22.60;;;20.40;;
36585;SDS011;22591;48.314;11.562;2022-08-19T09:28:42;23.40;;;20.60;;
36585;SDS011;22591;48.314;11.562;2022-08-19T09:31:19;21.02;;;18.92;;
36585;SDS011;22591;48.314;11.562;2022-08-19T09:33:47;21.45;;;19.40;;
36585;SDS011;22591;48.314;11.562;2022-08-19T09:36:14;25.15;;;22.60;;
36585;SDS011;22591;48.314;11.562;2022-08-19T09:38:42;23.08;;;20.77;;
36585;SDS011;22591;48.314;11.562;2022-08-19T09:41:08;25.20;;;22.60;;
36585;SDS011;22591;48.314;11.562;2022-08-19T09:43:37;23.08;;;20.98;;
36585;SDS011;22591;48.314;11.562;2022-08-19T09:46:04;22.02;;;19.92;;
36585;SDS011;22591;48.314;11.562;2022-08-19T09:48:31;23.13;;;20.80;;
36585;SDS011;22591;48.314;11.562;2022-08-19T09:51:04;23.02;;;20.83;;
36585;SDS011;22591;48.314;11.562;2022-08-19T09:53:32;20.73;;;18.83;;
36585;SDS011;22591;48.314;11.562;2022-08-19T09:56:02;21.45;;;19.45;;
36585;SDS011;22591;48.314;11.562;2022-08-19T09:58:29;19.95;;;18.00;;
36585;SDS011;22591;48.314;11.562;2022-08-19T10:00:59;17.75;;;16.15;;
36585;SDS011;22591;48.314;11.562;2022-08-19T10:03:26;16.63;;;15.10;;
36585;SDS011;22591;48.314;11.562;2022-08-19T10:05:53;18.88;;;17.17;;
36585;SDS011;22591;48.314;11.562;2022-08-19T10:08:21;18.25;;;16.65;;
36585;SDS011;22591;48.314;11.562;2022-08-19T10:10:50;19.52;;;17.65;;
36585;SDS011;22591;48.314;11.562;2022-08-19T10:13:17;19.73;;;17.83;;
36585;SDS011;22591;48.314;11.562;2022-08-19T10:15:50;21.17;;;19.30;;
36585;SDS011;22591;48.314;11.562;2022-08-19T10:18:17;24.88;;;22.27;;
36585;SDS011;22591;48.314;11.562;2022-08-19T10:20:45;25.63;;;23.15;;
36585;SDS011;22591;48.314;11.562;2022-08-19T10:23:12;25.10;;;22.60;;
36585;SDS011;22591;48.314;11.562;2022-08-19T10:25:37;23.80;;;21.58;;
36585;SDS011;22591;48.314;11.562;2022-08-19T10:28:03;26.10;;;23.52;;
36585;SDS011;22591;48.314;11.562;2022-08-19T10:30:31;30.08;;;26.17;;
36585;SDS011;22591;48.314;11.562;2022-08-19T10:32:57;29.27;;;26.27;;
36585;SDS011;22591;48.314;11.562;2022-08-19T10:35:22;27.63;;;24.83;;
36585;SDS011;22591;48.314;11.562;2022-08-19T10:37:49;29.70;;;26.70;;
36585;SDS011;22591;48.314;11.562;2022-08-19T10:40:15;29.83;;;26.60;;
36585;SDS011;22591;48.314;11.562;2022-08-19T10:42:40;34.00;;;30.50;;
36585;SDS011;22591;48.314;11.562;2022-08-19T10:45:06;31.17;;;28.00;;
36585;SDS011;22591;48.314;11.562;2022-08-19T10:47:34;30.40;;;27.25;;
36585;SDS011;22591;48.314;11.562;2022-08-19T10:50:00;29.13;;;26.13;;
36585;SDS011;22591;48.314;11.562;2022-08-19T10:52:44;30.42;;;27.23;;
36585;SDS011;22591;48.314;11.562;2022-08-19T10:55:11;29.80;;;26.67;;
36585;SDS011;22591;48.314;11.562;2022-08-19T10:57:55;26.05;;;23.55;;
36585;SDS011;22591;48.314;11.562;2022-08-19T11:00:22;24.88;;;22.58;;
36585;SDS011;22591;48.314;11.562;2022-08-19T11:02:49;23.92;;;21.60;;
36585;SDS011;22591;48.314;11.562;2022-08-19T11:05:15;20.55;;;18.63;;
36585;SDS011;22591;48.314;11.562;2022-08-19T11:07:42;19.67;;;17.85;;
36585;SDS011;22591;48.314;11.562;2022-08-19T11:10:10;16.23;;;14.70;;
36585;SDS011;22591;48.314;11.562;2022-08-19T11:12:38;16.05;;;14.55;;
36585;SDS011;22591;48.314;11.562;2022-08-19T11:15:05;16.83;;;15.32;;
36585;SDS011;22591;48.314;11.562;2022-08-19T11:17:33;17.92;;;16.42;;
36585;SDS011;22591;48.314;11.562;2022-08-19T11:19:59;16.88;;;15.38;;
36585;SDS011;22591;48.314;11.562;2022-08-19T11:22:28;17.35;;;15.88;;
36585;SDS011;22591;48.314;11.562;2022-08-19T11:24:54;15.35;;;14.05;;
36585;SDS011;22591;48.314;11.562;2022-08-19T11:27:20;16.42;;;14.98;;
36585;SDS011;22591;48.314;11.562;2022-08-19T11:29:46;16.33;;;14.82;;
36585;SDS011;22591;48.314;11.562;2022-08-19T11:32:12;17.52;;;16.02;;
36585;SDS011;22591;48.314;11.562;2022-08-19T11:34:38;15.88;;;14.50;;
36585;SDS011;22591;48.314;11.562;2022-08-19T11:37:04;14.85;;;13.65;;
36585;SDS011;22591;48.314;11.562;2022-08-19T11:39:31;12.48;;;11.48;;
36585;SDS011;22591;48.314;11.562;2022-08-19T11:41:59;12.13;;;11.07;;
36585;SDS011;22591;48.314;11.562;2022-08-19T11:44:26;11.02;;;10.13;;
36585;SDS011;22591;48.314;11.562;2022-08-19T11:46:55;7.63;;;7.03;;
36585;SDS011;22591;48.314;11.562;2022-08-19T11:49:21;5.45;;;5.07;;
36585;SDS011;22591;48.314;11.562;2022-08-19T11:51:47;3.90;;;3.70;;
36585;SDS011;22591;48.314;11.562;2022-08-19T11:54:15;4.20;;;3.90;;
36585;SDS011;22591;48.314;11.562;2022-08-19T11:56:41;2.90;;;2.80;;
36585;SDS011;22591;48.314;11.562;2022-08-19T11:59:07;2.63;;;2.53;;
36585;SDS011;22591;48.314;11.562;2022-08-19T12:01:33;2.70;;;2.50;;
36585;SDS011;22591;48.314;11.562;2022-08-19T12:03:59;2.10;;;2.00;;
36585;SDS011;22591;48.314;11.562;2022-08-19T12:06:28;1.95;;;1.80;;
36585;SDS011;22591;48.314;11.562;2022-08-19T12:08:57;1.25;;;1.25;;
36585;SDS011;22591;48.314;11.562;2022-08-19T12:11:25;1.40;;;1.30;;
36585;SDS011;22591;48.314;11.562;2022-08-19T12:13:51;1.10;;;1.10;;
36585;SDS011;22591;48.314;11.562;2022-08-19T12:16:20;1.10;;;1.10;;
36585;SDS011;22591;48.314;11.562;2022-08-19T12:18:48;1.40;;;1.30;;
36585;SDS011;22591;48.314;11.562;2022-08-19T12:21:16;1.20;;;1.20;;
36585;SDS011;22591;48.314;11.562;2022-08-19T12:23:48;1.30;;;1.30;;
36585;SDS011;22591;48.314;11.562;2022-08-19T12:26:15;1.77;;;1.20;;
36585;SDS011;22591;48.314;11.562;2022-08-19T12:28:41;1.40;;;1.30;;
36585;SDS011;22591;48.314;11.562;2022-08-19T12:31:07;1.60;;;1.50;;
36585;SDS011;22591;48.314;11.562;2022-08-19T12:33:33;1.98;;;1.88;;
36585;SDS011;22591;48.314;11.562;2022-08-19T12:36:00;1.80;;;1.70;;
36585;SDS011;22591;48.314;11.562;2022-08-19T12:38:27;1.92;;;1.83;;
36585;SDS011;22591;48.314;11.562;2022-08-19T12:40:53;1.10;;;1.10;;
36585;SDS011;22591;48.314;11.562;2022-08-19T12:43:19;1.30;;;1.25;;
36585;SDS011;22591;48.314;11.562;2022-08-19T12:45:45;1.15;;;1.15;;
36585;SDS011;22591;48.314;11.562;2022-08-19T12:48:11;1.40;;;1.40;;
36585;SDS011;22591;48.314;11.562;2022-08-19T12:50:41;1.50;;;1.40;;
36585;SDS011;22591;48.314;11.562;2022-08-19T12:53:09;1.30;;;1.30;;
36585;SDS011;22591;48.314;11.562;2022-08-19T12:55:35;1.70;;;1.60;;
36585;SDS011;22591;48.314;11.562;2022-08-19T12:58:00;1.80;;;1.70;;
36585;SDS011;22591;48.314;11.562;2022-08-19T13:00:26;2.17;;;2.00;;
36585;SDS011;22591;48.314;11.562;2022-08-19T13:02:52;2.97;;;1.90;;
36585;SDS011;22591;48.314;11.562;2022-08-19T13:05:19;2.40;;;2.25;;
36585;SDS011;22591;48.314;11.562;2022-08-19T13:07:48;2.72;;;2.63;;
36585;SDS011;22591;48.314;11.562;2022-08-19T13:10:19;3.03;;;2.90;;
36585;SDS011;22591;48.314;11.562;2022-08-19T13:12:46;3.70;;;3.50;;
36585;SDS011;22591;48.314;11.562;2022-08-19T13:15:13;3.78;;;3.58;;
36585;SDS011;22591;48.314;11.562;2022-08-19T13:17:40;3.70;;;3.50;;
36585;SDS011;22591;48.314;11.562;2022-08-19T13:20:07;3.78;;;3.58;;
36585;SDS011;22591;48.314;11.562;2022-08-19T13:22:34;3.88;;;3.67;;
36585;SDS011;22591;48.314;11.562;2022-08-19T13:25:01;3.47;;;3.28;;
36585;SDS011;22591;48.314;11.562;2022-08-19T13:27:27;4.15;;;3.85;;
36585;SDS011;22591;48.314;11.562;2022-08-19T13:29:54;3.78;;;3.58;;
36585;SDS011;22591;48.314;11.562;2022-08-19T13:32:38;3.28;;;3.08;;
36585;SDS011;22591;48.314;11.562;2022-08-19T13:35:22;3.63;;;3.42;;
36585;SDS011;22591;48.314;11.562;2022-08-19T13:37:48;3.45;;;3.15;;
36585;SDS011;22591;48.314;11.562;2022-08-19T13:42:51;3.88;;;3.67;;
36585;SDS011;22591;48.314;11.562;2022-08-19T13:45:19;4.22;;;4.03;;
36585;SDS011;22591;48.314;11.562;2022-08-19T13:47:47;3.95;;;3.75;;
36585;SDS011;22591;48.314;11.562;2022-08-19T13:50:16;3.75;;;3.55;;
36585;SDS011;22591;48.314;11.562;2022-08-19T13:52:43;3.70;;;3.50;;
36585;SDS011;22591;48.314;11.562;2022-08-19T13:55:09;4.25;;;4.05;;
36585;SDS011;22591;48.314;11.562;2022-08-19T13:57:37;3.58;;;3.38;;
36585;SDS011;22591;48.314;11.562;2022-08-19T14:00:10;4.05;;;3.50;;
36585;SDS011;22591;48.314;11.562;2022-08-19T14:02:39;3.63;;;3.42;;
36585;SDS011;22591;48.314;11.562;2022-08-19T14:05:06;3.63;;;3.42;;
36585;SDS011;22591;48.314;11.562;2022-08-19T14:07:34;3.30;;;3.10;;
36585;SDS011;22591;48.314;11.562;2022-08-19T14:10:01;3.33;;;3.20;;
36585;SDS011;22591;48.314;11.562;2022-08-19T14:12:27;2.97;;;2.88;;
36585;SDS011;22591;48.314;11.562;2022-08-19T14:14:53;3.17;;;2.97;;
36585;SDS011;22591;48.314;11.562;2022-08-19T14:17:18;2.80;;;2.70;;
36585;SDS011;22591;48.314;11.562;2022-08-19T14:19:44;2.60;;;2.50;;
36585;SDS011;22591;48.314;11.562;2022-08-19T14:22:09;2.90;;;2.72;;
36585;SDS011;22591;48.314;11.562;2022-08-19T14:24:37;2.45;;;2.35;;
36585;SDS011;22591;48.314;11.562;2022-08-19T14:27:04;2.63;;;2.53;;
36585;SDS011;22591;48.314;11.562;2022-08-19T14:29:31;3.03;;;2.83;;
36585;SDS011;22591;48.314;11.562;2022-08-19T14:31:57;2.63;;;2.53;;
36585;SDS011;22591;48.314;11.562;2022-08-19T14:34:24;2.90;;;2.70;;
36585;SDS011;22591;48.314;11.562;2022-08-19T14:36:50;4.05;;;3.85;;
36585;SDS011;22591;48.314;11.562;2022-08-19T14:39:15;5.20;;;4.90;;
36585;SDS011;22591;48.314;11.562;2022-08-19T14:41:41;5.50;;;5.07;;